Etusivu
METAR-TAF:

METAR-TAF

Lentoasemat :

Corinth, Mississippi, Yhdysvallat

Leveyspiiri: 34-54-54N, Pituuspiiri: 088-36-13W, korkeus merenpinnasta: 130 m

Tämänhetkinen sää

Tämä raportti tehtiin 25 minuuttia sitten, kello 06.15 UTC
tyyntä
Lämpötila 22°C
Kosteus 94%
Ilmanpaine 1017 hPa
Näkyvyys: 1.6 km
selkeää
utua

METAR: KCRX 170615Z AUTO 00000KT 1SM BR CLR 22/21 A3002 RMK AO2

Aika: 01:40 (06:40 UTC)


TAF: puuttuu

Säähavainnot ja -ennusteet yli 4000 lentoasemalta (METAR- ja TAF-raportit).

Käytössä olevat sääasemat on merkitty karttaan keltaisilla ja punaisilla pisteillä.

Aseta hiiri pisteen päälle nähdäksesi sääaseman nimen.

Klikkaa sitten nähdäksesi säähavainnot ja -ennusteet.

Kartan vaihtaminen: klikkaa mustalla rastilla varustettuja vihreitä pisteitä, niin voit zoomata sisään; viivalla varustettua vihreää pistettä, niin voit zoomata ulos tai vihreitä nuolia, niin pääset viereisille kartoille.


METAR-TAF: